createdAt,value
2023-02-03T05:47:36.358Z,1.10
2023-02-03T05:50:04.383Z,1.00
2023-02-03T05:52:32.377Z,1.40
2023-02-03T05:55:00.318Z,1.60
2023-02-03T05:57:28.266Z,1.00
2023-02-03T05:59:56.158Z,1.15
2023-02-03T06:02:24.058Z,1.20
2023-02-03T06:04:53.369Z,1.30
2023-02-03T06:07:21.310Z,1.10
2023-02-03T06:09:49.357Z,1.20
2023-02-03T06:12:17.330Z,1.45
2023-02-03T06:14:45.227Z,1.40
2023-02-03T06:17:13.260Z,1.20
2023-02-03T06:19:41.195Z,1.17
2023-02-03T06:22:10.491Z,1.30
2023-02-03T06:24:38.575Z,1.25
2023-02-03T06:27:06.552Z,1.00
2023-02-03T06:29:34.416Z,1.40
2023-02-03T06:32:02.431Z,1.30
2023-02-03T06:34:30.846Z,1.40
2023-02-03T06:36:58.728Z,1.20
2023-02-03T06:39:27.972Z,1.30
2023-02-03T06:41:56.638Z,1.30
2023-02-03T06:44:24.702Z,1.60
2023-02-03T06:46:52.799Z,1.17
2023-02-03T06:49:20.871Z,1.40
2023-02-03T06:51:49.092Z,1.08
2023-02-03T06:54:17.070Z,1.30
2023-02-03T06:56:47.229Z,1.90
2023-02-03T06:59:15.232Z,6.15
2023-02-03T07:01:43.233Z,1.30
2023-02-03T07:04:11.171Z,1.08
2023-02-03T07:06:39.181Z,1.30
2023-02-03T07:09:08.259Z,1.15
2023-02-03T07:11:36.225Z,1.40
2023-02-03T07:14:05.567Z,1.25
2023-02-03T07:16:34.322Z,1.17
2023-02-03T07:19:02.204Z,1.23
2023-02-03T07:21:30.201Z,1.10
2023-02-03T07:23:58.465Z,1.17
2023-02-03T07:26:26.981Z,1.10
2023-02-03T07:28:55.082Z,1.20
2023-02-03T07:31:24.451Z,1.15
2023-02-03T07:33:52.450Z,1.60
2023-02-03T07:36:20.451Z,1.10
2023-02-03T07:38:48.452Z,1.13
2023-02-03T07:41:18.064Z,1.40
2023-02-03T07:43:46.331Z,1.25
2023-02-03T15:02:36.651Z,1.13
2023-02-03T15:05:39.036Z,1.13
2023-02-03T15:08:40.068Z,1.52
2023-02-03T15:11:30.266Z,1.27
2023-02-03T15:14:17.621Z,1.88
2023-02-03T15:16:57.005Z,1.90
2023-02-03T15:19:28.825Z,2.22
2023-02-03T15:21:56.900Z,2.88
2023-02-03T15:24:25.924Z,1.23
2023-02-03T15:26:56.189Z,1.08
2023-02-03T15:29:28.728Z,1.20
2023-02-03T15:32:03.144Z,2.13
2023-02-03T15:34:36.386Z,2.60
2023-02-03T15:37:09.556Z,1.88
2023-02-03T15:39:46.115Z,2.55
2023-02-03T15:42:20.995Z,1.83
2023-02-03T15:44:54.531Z,1.58
2023-02-03T15:47:29.365Z,1.23
2023-02-03T15:50:07.603Z,1.42
2023-02-03T15:52:38.743Z,1.80
2023-02-03T15:55:18.468Z,1.38
2023-02-03T15:57:49.398Z,1.40
2023-02-03T16:00:32.864Z,1.60
2023-02-03T16:03:03.672Z,1.52
2023-02-03T16:05:34.855Z,1.30
2023-02-03T16:08:29.632Z,1.50
2023-02-03T16:10:57.766Z,1.50
2023-02-03T16:13:27.496Z,1.30
2023-02-03T16:16:05.832Z,1.85
2023-02-03T16:18:36.776Z,1.90
2023-02-03T16:21:07.053Z,1.35
2023-02-03T16:23:35.053Z,1.90
2023-02-03T16:26:05.289Z,1.38
2023-02-03T16:28:51.059Z,1.10
2023-02-03T16:31:38.364Z,1.38
2023-02-03T16:34:32.979Z,1.23
2023-02-03T16:37:20.509Z,1.50
2023-02-03T16:40:06.073Z,1.30
2023-02-03T16:42:56.921Z,1.40
2023-02-03T16:45:43.308Z,1.40
2023-02-03T16:48:30.238Z,1.10
2023-02-03T16:50:59.772Z,1.10
2023-02-03T16:53:31.940Z,1.15
2023-02-03T16:56:02.488Z,1.45
2023-02-03T16:58:30.900Z,1.50
2023-02-03T17:01:01.158Z,1.33
2023-02-03T17:03:29.868Z,1.35
2023-02-03T17:05:58.681Z,1.40
2023-02-03T17:08:29.060Z,1.08
2023-02-03T17:10:57.235Z,1.40
2023-02-03T17:13:25.528Z,1.50
2023-02-03T17:15:53.671Z,2.22
2023-02-03T17:18:22.711Z,1.60
2023-02-03T17:20:50.735Z,1.90
2023-02-03T17:23:18.900Z,2.55
2023-02-03T17:25:50.334Z,1.75
2023-02-03T17:28:18.641Z,2.03
2023-02-03T17:30:46.679Z,2.67
2023-02-03T17:33:14.589Z,1.88
2023-02-03T17:35:44.543Z,2.10
2023-02-03T17:38:14.520Z,3.88
2023-02-03T17:54:36.698Z,2.60
2023-02-03T17:57:05.097Z,2.38
2023-02-03T17:59:37.647Z,2.70
2023-02-03T18:02:05.605Z,3.00
2023-02-03T18:04:34.922Z,2.25
2023-02-03T18:07:02.809Z,3.22
2023-02-03T18:09:31.121Z,2.97
2023-02-03T18:11:59.053Z,2.78
2023-02-03T18:14:27.173Z,2.70
2023-02-03T18:16:56.538Z,2.63
2023-02-03T18:19:24.588Z,2.20
2023-02-03T18:21:52.543Z,2.80
2023-02-03T18:24:22.488Z,2.88
2023-02-03T18:26:52.671Z,2.97
2023-02-03T18:29:21.177Z,2.08
2023-02-03T18:31:49.666Z,2.00
2023-02-03T18:34:19.048Z,2.28
2023-02-03T18:36:47.259Z,2.28
2023-02-03T18:39:18.262Z,1.83
2023-02-03T18:41:46.274Z,2.03
2023-02-03T18:44:14.256Z,2.33
2023-02-03T18:46:42.224Z,1.92
2023-02-03T18:49:10.431Z,2.20
2023-02-03T18:51:39.882Z,2.30
2023-02-03T18:54:07.864Z,2.33
2023-02-03T18:56:35.966Z,2.28
2023-02-03T18:59:08.799Z,2.60
2023-02-03T19:01:38.868Z,2.63
2023-02-03T19:04:07.665Z,1.90
2023-02-03T19:06:36.268Z,2.10
2023-02-03T19:09:06.474Z,2.33
2023-02-03T19:11:35.041Z,2.05
2023-02-03T19:14:02.992Z,1.80
2023-02-03T19:16:31.651Z,1.88
2023-02-03T19:18:59.608Z,2.10
2023-02-03T19:21:27.970Z,2.08
2023-02-03T19:23:56.013Z,2.10
2023-02-03T19:26:27.743Z,2.50
2023-02-03T19:28:56.324Z,2.05
2023-02-03T19:31:24.499Z,2.05
2023-02-03T19:33:52.712Z,2.35
2023-02-03T19:36:20.724Z,2.35
2023-02-03T19:38:49.007Z,2.67
2023-02-03T19:41:17.065Z,2.50
2023-02-03T19:43:47.764Z,2.60
2023-02-03T19:46:15.823Z,2.60
2023-02-03T19:48:43.793Z,3.28
2023-02-03T19:51:12.147Z,2.85
2023-02-03T19:53:40.252Z,2.45
2023-02-03T19:56:08.321Z,2.42
2023-02-03T19:58:36.459Z,3.20
2023-02-03T20:01:06.018Z,4.50
2023-02-03T20:03:34.031Z,4.03
2023-02-03T20:06:02.040Z,3.00
2023-02-03T20:08:30.038Z,2.88
2023-02-03T20:10:58.041Z,2.83
2023-02-03T20:13:26.038Z,3.03
2023-02-03T20:15:54.387Z,2.53
2023-02-03T20:18:23.790Z,2.80
2023-02-03T20:20:52.366Z,2.72
2023-02-03T20:23:20.424Z,3.03
2023-02-03T20:25:50.080Z,2.97
2023-02-03T20:28:18.229Z,3.17
2023-02-03T20:30:46.618Z,2.90
2023-02-03T20:33:14.733Z,3.08
2023-02-03T20:35:44.064Z,2.80
2023-02-03T20:38:12.054Z,3.00
2023-02-03T20:40:40.118Z,3.33
2023-02-03T20:43:16.386Z,3.55
2023-02-03T20:45:45.050Z,3.53
2023-02-03T20:48:14.755Z,3.60
2023-02-03T20:50:47.236Z,3.70
2023-02-03T20:53:17.192Z,3.53
2023-02-03T20:55:45.247Z,3.58
2023-02-03T20:58:18.784Z,3.78
